Terminal Aerodrome Forecast
Issued by NWS

Home | Current Version | Previous Version | Text Only | Print | Product List | Glossary On
Versions: 1 2 3 4 5 6 7 8 9 10 11 12 13 14 15 16 17
000
FTUS43 KABR 212300
TAFATY
TAF
KATY 212332Z 2200/2224 33011KT P6SM FEW035
     FM220200 VRB03KT P6SM SKC
      TEMPO 2210/2214 2SM BR
     FM221400 VRB05KT P6SM BKN200=

USA.gov is the U.S. government's official web portal to all federal, state and local government web resources and services.